createdAt,value
2023-02-15T00:01:49.224Z,94.43
2023-02-15T00:05:01.904Z,98.47
2023-02-15T00:08:14.220Z,103.53
2023-02-15T00:11:43.552Z,120.53
2023-02-15T00:14:55.904Z,114.85
2023-02-15T00:18:08.604Z,111.53
2023-02-15T00:21:20.935Z,106.63
2023-02-15T00:24:33.620Z,111.45
2023-02-15T00:27:46.029Z,114.82
2023-02-15T00:31:08.976Z,109.40
2023-02-15T00:34:27.321Z,86.50
2023-02-15T00:37:39.999Z,86.18
2023-02-15T00:41:00.216Z,84.60
2023-02-15T00:44:13.206Z,76.28
2023-02-15T00:47:26.295Z,85.18
2023-02-15T00:50:38.989Z,76.22
2023-02-15T00:53:51.561Z,72.80
2023-02-15T00:57:04.254Z,76.82
2023-02-15T01:00:16.931Z,70.22
2023-02-15T01:03:29.778Z,78.32
2023-02-15T01:06:42.209Z,75.90
2023-02-15T01:09:55.695Z,69.55
2023-02-15T01:13:07.994Z,69.72
2023-02-15T01:16:20.766Z,78.57
2023-02-15T01:19:33.711Z,84.78
2023-02-15T01:22:46.394Z,72.53
2023-02-15T01:26:03.159Z,88.45
2023-02-15T01:29:16.067Z,96.20
2023-02-15T01:32:28.385Z,83.62
2023-02-15T01:35:41.233Z,82.00
2023-02-15T01:38:53.566Z,76.00
2023-02-15T01:42:06.212Z,80.62
2023-02-15T01:45:47.450Z,78.40
2023-02-15T01:49:06.280Z,89.35
2023-02-15T01:52:18.608Z,86.55
2023-02-15T01:56:07.360Z,78.15
2023-02-15T01:59:21.172Z,81.18
2023-02-15T02:02:35.082Z,77.93
2023-02-15T02:05:47.782Z,81.82
2023-02-15T02:09:00.169Z,81.72
2023-02-15T02:12:12.865Z,80.65
2023-02-15T02:15:36.272Z,84.03
2023-02-15T02:19:19.556Z,83.43
2023-02-15T02:22:45.819Z,77.85
2023-02-15T02:26:29.247Z,83.62
2023-02-15T02:30:10.063Z,78.05
2023-02-15T02:33:42.536Z,75.15
2023-02-15T02:37:09.596Z,75.68
2023-02-15T02:40:38.082Z,81.03
2023-02-15T02:44:23.186Z,85.28
2023-02-15T02:48:05.376Z,76.97
2023-02-15T02:51:22.426Z,76.87
2023-02-15T02:54:35.905Z,82.22
2023-02-15T02:57:57.118Z,84.75
2023-02-15T03:01:26.023Z,80.97
2023-02-15T03:04:39.465Z,76.40
2023-02-15T03:07:53.145Z,75.78
2023-02-15T03:11:05.828Z,79.93
2023-02-15T03:14:19.064Z,82.43
2023-02-15T03:17:33.584Z,86.78
2023-02-15T03:20:46.364Z,82.05
2023-02-15T03:24:02.496Z,79.45
2023-02-15T03:27:18.259Z,83.10
2023-02-15T03:30:31.370Z,90.67
2023-02-15T03:33:50.009Z,116.12
2023-02-15T03:37:12.311Z,131.95
2023-02-15T03:40:54.076Z,93.47
2023-02-15T03:44:12.941Z,87.72
2023-02-15T03:47:38.653Z,85.38
2023-02-15T03:51:09.798Z,88.03
2023-02-15T03:54:44.966Z,84.47
2023-02-15T03:58:16.299Z,79.95
2023-02-15T04:01:50.227Z,86.45
2023-02-15T04:05:02.908Z,91.65
2023-02-15T04:08:15.222Z,82.70
2023-02-15T04:11:27.892Z,83.55
2023-02-15T04:14:58.947Z,88.53
2023-02-15T04:18:11.548Z,81.75
2023-02-15T04:21:43.265Z,83.10
2023-02-15T04:25:11.760Z,87.70
2023-02-15T04:28:24.110Z,76.20
2023-02-15T04:31:36.923Z,88.62
2023-02-15T04:34:49.412Z,85.72
2023-02-15T04:38:02.042Z,85.62
2023-02-15T04:41:14.401Z,90.40
2023-02-15T04:44:27.021Z,86.90
2023-02-15T04:47:39.394Z,89.68
2023-02-15T04:50:52.059Z,91.25
2023-02-15T04:54:04.569Z,86.32
2023-02-15T04:57:17.280Z,84.40
2023-02-15T05:00:29.722Z,89.60
2023-02-15T05:03:42.414Z,79.68
2023-02-15T05:06:54.753Z,90.12
2023-02-15T05:10:07.831Z,84.50
2023-02-15T05:13:20.180Z,84.82
2023-02-15T05:16:32.964Z,84.50
2023-02-15T05:19:45.377Z,82.47
2023-02-15T05:22:58.030Z,90.32
2023-02-15T05:26:31.203Z,88.00
2023-02-15T05:29:43.839Z,90.03
2023-02-15T05:32:56.244Z,82.35
2023-02-15T05:36:09.014Z,87.12
2023-02-15T05:39:21.394Z,81.45
2023-02-15T05:42:34.028Z,85.85
2023-02-15T05:45:50.124Z,83.60
2023-02-15T05:49:02.767Z,82.97
2023-02-15T05:52:15.107Z,80.78
2023-02-15T05:55:27.910Z,86.20
2023-02-15T05:58:41.386Z,84.68
2023-02-15T06:01:54.073Z,85.87
2023-02-15T06:05:07.170Z,84.37
2023-02-15T06:08:19.636Z,81.25
2023-02-15T06:11:32.316Z,92.57
2023-02-15T06:14:44.720Z,96.12
2023-02-15T06:17:57.593Z,89.10
2023-02-15T06:21:10.087Z,89.47
2023-02-15T06:24:22.768Z,93.20
2023-02-15T06:27:35.216Z,99.70
2023-02-15T06:30:47.992Z,99.32
2023-02-15T06:34:03.136Z,94.75
2023-02-15T06:37:15.819Z,88.93
2023-02-15T06:40:28.215Z,92.18
2023-02-15T06:43:41.177Z,114.28
2023-02-15T06:46:53.595Z,107.37
2023-02-15T06:50:06.952Z,103.40
2023-02-15T06:53:19.324Z,99.72
2023-02-15T06:56:32.047Z,86.53
2023-02-15T06:59:44.604Z,88.35
2023-02-15T07:02:58.771Z,76.37
2023-02-15T07:06:12.552Z,75.37
2023-02-15T07:09:26.029Z,75.43
2023-02-15T07:12:42.930Z,71.78
2023-02-15T07:19:09.383Z,77.93
2023-02-15T07:22:22.775Z,82.20
2023-02-15T07:25:35.693Z,84.53
2023-02-15T07:28:48.463Z,79.95
2023-02-15T07:32:00.855Z,85.85
2023-02-15T07:35:13.520Z,73.68
2023-02-15T07:38:27.121Z,73.47
2023-02-15T07:41:39.815Z,73.65
2023-02-15T07:44:56.337Z,68.20
2023-02-15T07:48:09.063Z,73.87
2023-02-15T07:51:21.430Z,77.15
2023-02-15T07:54:35.483Z,66.95
2023-02-15T07:57:48.654Z,67.43
2023-02-15T08:01:05.127Z,68.97
2023-02-15T08:04:19.160Z,64.22
2023-02-15T08:07:31.512Z,62.67
2023-02-15T08:11:02.747Z,60.38
2023-02-15T08:14:19.312Z,64.97
2023-02-15T08:17:31.964Z,66.97
2023-02-15T08:20:44.339Z,65.53
2023-02-15T08:23:57.141Z,70.78
2023-02-15T08:27:10.934Z,63.78
2023-02-15T08:30:23.854Z,60.17
2023-02-15T08:33:37.302Z,55.97
2023-02-15T08:36:51.975Z,55.95
2023-02-15T08:40:06.312Z,54.00
2023-02-15T08:43:18.975Z,59.33
2023-02-15T08:46:36.913Z,53.78
2023-02-15T08:49:49.639Z,51.35
2023-02-15T08:53:02.377Z,45.28
2023-02-15T08:56:15.398Z,48.67
2023-02-15T08:59:27.928Z,49.20
2023-02-15T09:02:41.195Z,50.40
2023-02-15T09:05:58.394Z,52.38
2023-02-15T09:09:11.380Z,52.28
2023-02-15T09:12:23.820Z,50.78
2023-02-15T09:15:36.529Z,52.90
2023-02-15T09:18:49.051Z,56.55
2023-02-15T09:22:01.744Z,58.40
2023-02-15T09:25:14.720Z,66.22
2023-02-15T09:28:27.420Z,52.55
2023-02-15T09:31:42.600Z,51.37
2023-02-15T09:34:55.420Z,51.90
2023-02-15T09:38:07.879Z,52.10
2023-02-15T09:41:23.368Z,46.92
2023-02-15T09:44:38.523Z,52.08
2023-02-15T09:48:00.026Z,48.72
2023-02-15T09:51:32.972Z,52.92
2023-02-15T09:54:57.904Z,48.67
2023-02-15T09:58:22.010Z,46.10
2023-02-15T10:01:53.666Z,41.08
2023-02-15T10:05:32.468Z,42.05
2023-02-15T10:09:03.188Z,40.58
2023-02-15T10:12:21.909Z,40.35
2023-02-15T10:15:53.177Z,37.85
2023-02-15T10:19:37.944Z,40.17
2023-02-15T10:22:53.291Z,47.88
2023-02-15T10:26:27.626Z,36.25
2023-02-15T10:30:02.461Z,37.97
2023-02-15T10:33:32.178Z,38.55
2023-02-15T10:37:20.050Z,40.15
2023-02-15T10:40:46.750Z,41.30
2023-02-15T10:44:25.312Z,52.65
2023-02-15T10:47:50.018Z,46.53
2023-02-15T10:51:04.577Z,45.33
2023-02-15T10:54:59.103Z,50.22
2023-02-15T10:58:28.862Z,49.28
2023-02-15T11:02:05.160Z,48.90
2023-02-15T11:05:21.678Z,42.30
2023-02-15T11:08:36.946Z,48.72
2023-02-15T11:11:51.427Z,45.70
2023-02-15T11:15:12.823Z,44.00
2023-02-15T11:18:40.773Z,43.95
2023-02-15T11:22:01.759Z,53.38
2023-02-15T11:25:26.635Z,44.75
2023-02-15T11:28:48.301Z,43.67
2023-02-15T11:32:05.173Z,53.08
2023-02-15T11:38:51.766Z,69.97
2023-02-15T11:42:13.369Z,45.72
2023-02-15T11:45:30.424Z,47.25
2023-02-15T11:51:55.659Z,47.78
2023-02-15T11:55:16.590Z,82.95
2023-02-15T11:58:44.518Z,51.10
2023-02-15T12:01:57.480Z,47.78
2023-02-15T12:05:23.329Z,51.97
2023-02-15T12:08:40.125Z,48.65
2023-02-15T12:11:53.517Z,49.00
2023-02-15T12:15:07.648Z,44.83
2023-02-15T12:18:37.296Z,42.20
2023-02-15T12:21:50.955Z,51.45
2023-02-15T12:25:12.375Z,46.80
2023-02-15T12:28:30.699Z,45.72
2023-02-15T12:31:46.008Z,44.40
2023-02-15T12:35:27.712Z,40.58
2023-02-15T12:38:41.051Z,40.75
2023-02-15T12:41:56.113Z,45.95
2023-02-15T12:45:29.335Z,42.58
2023-02-15T12:48:41.649Z,43.33
2023-02-15T12:51:59.592Z,52.55
2023-02-15T12:55:30.554Z,40.42
2023-02-15T12:58:43.270Z,42.95
2023-02-15T13:01:55.699Z,39.20
2023-02-15T13:05:14.660Z,42.42
2023-02-15T13:08:32.726Z,40.95
2023-02-15T13:11:45.432Z,47.47
2023-02-15T13:14:58.045Z,40.47
2023-02-15T13:18:14.287Z,40.45
2023-02-15T13:21:29.136Z,44.75
2023-02-15T13:24:48.262Z,45.20
2023-02-15T13:28:02.719Z,43.50
2023-02-15T13:31:17.002Z,41.10
2023-02-15T13:34:34.120Z,40.80
2023-02-15T13:37:49.607Z,43.53
2023-02-15T13:41:04.599Z,42.30
2023-02-15T13:44:53.544Z,45.03
2023-02-15T13:52:27.917Z,45.33
2023-02-15T13:56:14.481Z,48.22
2023-02-15T13:59:36.161Z,45.60
2023-02-15T14:02:48.399Z,42.75
2023-02-15T14:06:31.995Z,43.35
2023-02-15T14:09:58.092Z,41.72
2023-02-15T14:13:22.751Z,46.30
2023-02-15T14:17:06.106Z,44.13
2023-02-15T14:20:35.521Z,45.38
2023-02-15T14:23:57.471Z,46.00
2023-02-15T14:27:22.995Z,50.12
2023-02-15T14:30:37.739Z,81.47
2023-02-15T14:33:57.673Z,62.08
2023-02-15T14:37:11.745Z,54.95
2023-02-15T14:41:10.026Z,46.65
2023-02-15T14:44:38.679Z,49.17
2023-02-15T14:48:09.210Z,67.72
2023-02-15T14:51:50.465Z,44.88
2023-02-15T14:55:03.072Z,44.92
2023-02-15T14:58:15.396Z,44.67
2023-02-15T15:01:32.128Z,45.72
2023-02-15T15:04:46.546Z,44.60
2023-02-15T15:07:59.812Z,51.42
2023-02-15T15:11:42.845Z,56.33
2023-02-15T15:14:55.956Z,49.75
2023-02-15T15:18:09.162Z,53.95
2023-02-15T15:21:49.737Z,53.78
2023-02-15T15:25:12.740Z,51.78
2023-02-15T15:28:48.578Z,48.85
2023-02-15T15:32:01.063Z,61.28
2023-02-15T15:35:41.598Z,57.75
2023-02-15T15:39:35.654Z,56.63
2023-02-15T15:43:09.879Z,54.13
2023-02-15T15:46:54.486Z,52.72
2023-02-15T15:50:14.753Z,53.63
2023-02-15T15:53:28.671Z,51.28
2023-02-15T15:56:41.296Z,53.17
2023-02-15T15:59:54.432Z,60.47
2023-02-15T16:03:07.199Z,58.65
2023-02-15T16:06:37.737Z,56.95
2023-02-15T16:10:06.746Z,55.58
2023-02-15T16:13:19.349Z,50.92
2023-02-15T16:16:31.986Z,55.33
2023-02-15T16:19:44.724Z,55.05
2023-02-15T16:23:24.888Z,57.38
2023-02-15T16:27:00.717Z,55.72
2023-02-15T16:30:32.971Z,59.13
2023-02-15T16:33:46.112Z,66.18
2023-02-15T16:37:22.892Z,73.05
2023-02-15T16:40:58.295Z,75.28
2023-02-15T16:44:16.666Z,91.65
2023-02-15T16:47:30.363Z,108.65
2023-02-15T16:50:42.730Z,91.87
2023-02-15T16:53:55.758Z,91.00
2023-02-15T16:57:18.667Z,87.30
2023-02-15T17:00:38.500Z,78.57
2023-02-15T17:03:51.731Z,83.15
2023-02-15T17:07:18.020Z,83.07
2023-02-15T17:10:31.824Z,89.97
2023-02-15T17:14:06.634Z,103.78
2023-02-15T17:17:19.116Z,101.75
2023-02-15T17:20:34.532Z,93.22
2023-02-15T17:23:49.365Z,114.65
2023-02-15T17:27:05.260Z,101.07
2023-02-15T17:30:25.766Z,104.28
2023-02-15T17:33:40.400Z,106.12
2023-02-15T17:36:58.738Z,124.68
2023-02-15T17:40:16.123Z,106.22
2023-02-15T17:43:28.466Z,123.78
2023-02-15T17:46:41.148Z,128.82
2023-02-15T17:49:53.487Z,125.87
2023-02-15T17:53:08.746Z,189.73
2023-02-15T17:56:21.056Z,206.70
2023-02-15T17:59:33.639Z,189.95
2023-02-15T18:03:04.966Z,161.05
2023-02-15T18:06:36.120Z,143.75
2023-02-15T18:10:07.580Z,128.55
2023-02-15T18:13:20.251Z,110.18
2023-02-15T18:16:45.599Z,96.55
2023-02-15T18:19:58.523Z,87.03
2023-02-15T18:23:14.101Z,89.18
2023-02-15T18:26:26.999Z,92.82
2023-02-15T18:29:39.362Z,88.95
2023-02-15T18:32:52.624Z,86.93
2023-02-15T18:36:06.362Z,91.32
2023-02-15T18:39:46.715Z,86.55
2023-02-15T18:42:59.056Z,100.10
2023-02-15T18:46:12.193Z,88.97
2023-02-15T18:49:24.739Z,81.93
2023-02-15T18:52:38.035Z,86.45
2023-02-15T18:55:50.422Z,81.30
2023-02-15T18:59:03.044Z,83.80
2023-02-15T19:02:17.339Z,86.45
2023-02-15T19:05:30.559Z,79.25
2023-02-15T19:08:47.148Z,75.37
2023-02-15T19:11:59.836Z,83.75
2023-02-15T19:15:30.903Z,79.60
2023-02-15T19:18:43.507Z,85.07
2023-02-15T19:21:55.833Z,72.62
2023-02-15T19:25:08.421Z,77.22
2023-02-15T19:28:32.800Z,76.72
2023-02-15T19:31:45.552Z,75.05
2023-02-15T19:34:57.981Z,73.85
2023-02-15T19:38:16.200Z,76.75
2023-02-15T19:41:30.971Z,71.00
2023-02-15T19:44:43.798Z,74.62
2023-02-15T20:00:12.337Z,83.60
2023-02-15T20:03:32.712Z,83.40
2023-02-15T20:06:45.843Z,89.35
2023-02-15T20:09:58.496Z,82.75
2023-02-15T20:13:20.101Z,82.30
2023-02-15T20:16:32.802Z,84.55
2023-02-15T20:19:46.209Z,83.43
2023-02-15T20:22:58.931Z,87.12
2023-02-15T20:26:18.160Z,97.15
2023-02-15T20:29:30.851Z,83.47
2023-02-15T20:32:43.197Z,87.47
2023-02-15T20:35:55.882Z,99.32
2023-02-15T20:39:14.729Z,87.57
2023-02-15T20:42:29.019Z,97.62
2023-02-15T20:45:41.332Z,100.35
2023-02-15T20:48:53.932Z,94.53
2023-02-15T20:52:19.263Z,94.78
2023-02-15T20:55:32.391Z,86.18
2023-02-15T20:58:44.773Z,84.93
2023-02-15T21:02:02.266Z,95.25
2023-02-15T21:08:30.227Z,96.22
2023-02-15T21:11:45.611Z,107.97
2023-02-15T21:14:58.261Z,122.30
2023-02-15T21:18:15.651Z,115.60
2023-02-15T21:21:28.313Z,111.68
2023-02-15T21:24:51.869Z,108.00
2023-02-15T21:28:05.176Z,112.90
2023-02-15T21:31:18.675Z,110.53
2023-02-15T21:34:31.361Z,121.72
2023-02-15T21:37:43.966Z,115.05
2023-02-15T21:41:16.504Z,172.90
2023-02-15T21:44:47.333Z,139.60
2023-02-15T21:48:00.015Z,136.85
2023-02-15T21:51:31.200Z,148.98
2023-02-15T21:54:43.849Z,112.00
2023-02-15T21:57:56.188Z,118.00
2023-02-15T22:01:26.253Z,113.20
2023-02-15T22:04:39.667Z,104.07
2023-02-15T22:07:52.017Z,103.25
2023-02-15T22:11:13.191Z,107.93
2023-02-15T22:14:34.630Z,109.20
2023-02-15T22:17:47.924Z,111.20
2023-02-15T22:21:00.887Z,94.57
2023-02-15T22:24:13.604Z,101.03
2023-02-15T22:27:27.099Z,99.78
2023-02-15T22:30:39.685Z,100.12
2023-02-15T22:33:52.164Z,97.78
2023-02-15T22:37:06.009Z,90.12
2023-02-15T22:40:18.751Z,90.18
2023-02-15T22:43:35.423Z,91.43
2023-02-15T22:46:47.774Z,95.20
2023-02-15T22:50:00.539Z,91.47
2023-02-15T22:53:12.843Z,91.50
2023-02-15T22:56:27.757Z,95.32
2023-02-15T22:59:40.605Z,91.03
2023-02-15T23:02:53.978Z,89.72
2023-02-15T23:06:06.548Z,85.65
2023-02-15T23:09:19.765Z,87.85
2023-02-15T23:12:50.636Z,94.03
2023-02-15T23:16:04.451Z,84.55
2023-02-15T23:19:16.808Z,87.03
2023-02-15T23:22:29.488Z,82.57
2023-02-15T23:25:42.026Z,87.50
2023-02-15T23:28:55.656Z,93.45
2023-02-15T23:32:14.539Z,95.55
2023-02-15T23:35:27.243Z,85.90
2023-02-15T23:38:39.571Z,87.97
2023-02-15T23:41:52.198Z,98.43
2023-02-15T23:45:05.352Z,100.00
2023-02-15T23:48:29.880Z,97.88
2023-02-15T23:51:43.884Z,94.10
2023-02-15T23:54:56.545Z,100.78
2023-02-15T23:58:17.259Z,91.43
